sensor_id;sensor_type;location;lat;lon;timestamp;P1;durP1;ratioP1;P2;durP2;ratioP2
39698;SDS011;25372;50.582;12.250;2023-02-22T00:02:29;5.25;;;2.72;;
39698;SDS011;25372;50.582;12.250;2023-02-22T00:12:53;5.57;;;2.92;;
39698;SDS011;25372;50.582;12.250;2023-02-22T00:23:15;4.47;;;2.55;;
39698;SDS011;25372;50.582;12.250;2023-02-22T00:33:39;5.45;;;2.47;;
39698;SDS011;25372;50.582;12.250;2023-02-22T00:44:00;4.55;;;3.05;;
39698;SDS011;25372;50.582;12.250;2023-02-22T00:54:22;6.63;;;2.85;;
39698;SDS011;25372;50.582;12.250;2023-02-22T01:04:45;6.75;;;3.15;;
39698;SDS011;25372;50.582;12.250;2023-02-22T01:15:08;6.70;;;3.20;;
39698;SDS011;25372;50.582;12.250;2023-02-22T01:25:31;5.97;;;3.28;;
39698;SDS011;25372;50.582;12.250;2023-02-22T01:35:53;6.35;;;2.80;;
39698;SDS011;25372;50.582;12.250;2023-02-22T01:46:21;8.45;;;3.70;;
39698;SDS011;25372;50.582;12.250;2023-02-22T01:56:52;8.77;;;3.38;;
39698;SDS011;25372;50.582;12.250;2023-02-22T02:07:20;8.98;;;4.07;;
39698;SDS011;25372;50.582;12.250;2023-02-22T02:17:47;8.05;;;4.10;;
39698;SDS011;25372;50.582;12.250;2023-02-22T02:38:54;10.98;;;3.70;;
39698;SDS011;25372;50.582;12.250;2023-02-22T02:49:21;8.63;;;4.00;;
39698;SDS011;25372;50.582;12.250;2023-02-22T02:59:47;5.82;;;3.15;;
39698;SDS011;25372;50.582;12.250;2023-02-22T03:21:06;13.10;;;3.70;;
39698;SDS011;25372;50.582;12.250;2023-02-22T03:31:34;8.43;;;3.08;;
39698;SDS011;25372;50.582;12.250;2023-02-22T03:42:03;8.27;;;3.92;;
39698;SDS011;25372;50.582;12.250;2023-02-22T03:52:29;10.73;;;4.93;;
39698;SDS011;25372;50.582;12.250;2023-02-22T04:02:51;8.30;;;4.32;;
39698;SDS011;25372;50.582;12.250;2023-02-22T04:13:14;9.83;;;4.33;;
39698;SDS011;25372;50.582;12.250;2023-02-22T04:23:40;10.07;;;4.30;;
39698;SDS011;25372;50.582;12.250;2023-02-22T04:34:01;8.25;;;3.50;;
39698;SDS011;25372;50.582;12.250;2023-02-22T04:44:27;10.68;;;3.40;;
39698;SDS011;25372;50.582;12.250;2023-02-22T04:54:49;6.43;;;4.10;;
39698;SDS011;25372;50.582;12.250;2023-02-22T05:05:13;10.40;;;4.65;;
39698;SDS011;25372;50.582;12.250;2023-02-22T05:15:35;5.87;;;3.27;;
39698;SDS011;25372;50.582;12.250;2023-02-22T05:25:57;5.97;;;3.30;;
39698;SDS011;25372;50.582;12.250;2023-02-22T05:36:18;11.50;;;4.43;;
39698;SDS011;25372;50.582;12.250;2023-02-22T05:46:40;4.72;;;3.05;;
39698;SDS011;25372;50.582;12.250;2023-02-22T05:57:01;8.52;;;4.00;;
39698;SDS011;25372;50.582;12.250;2023-02-22T06:07:23;7.15;;;4.00;;
39698;SDS011;25372;50.582;12.250;2023-02-22T06:17:44;9.52;;;4.07;;
39698;SDS011;25372;50.582;12.250;2023-02-22T06:28:06;7.65;;;3.78;;
39698;SDS011;25372;50.582;12.250;2023-02-22T06:38:27;12.77;;;5.38;;
39698;SDS011;25372;50.582;12.250;2023-02-22T06:48:48;17.67;;;5.35;;
39698;SDS011;25372;50.582;12.250;2023-02-22T06:59:10;15.10;;;6.07;;
39698;SDS011;25372;50.582;12.250;2023-02-22T07:09:32;10.90;;;5.38;;
39698;SDS011;25372;50.582;12.250;2023-02-22T07:19:53;12.98;;;4.80;;
39698;SDS011;25372;50.582;12.250;2023-02-22T07:30:18;13.90;;;5.07;;
39698;SDS011;25372;50.582;12.250;2023-02-22T07:40:43;16.42;;;5.10;;
39698;SDS011;25372;50.582;12.250;2023-02-22T07:51:06;13.13;;;5.47;;
39698;SDS011;25372;50.582;12.250;2023-02-22T08:01:28;18.17;;;7.00;;
39698;SDS011;25372;50.582;12.250;2023-02-22T08:11:51;35.53;;;12.45;;
39698;SDS011;25372;50.582;12.250;2023-02-22T08:22:12;14.15;;;6.32;;
39698;SDS011;25372;50.582;12.250;2023-02-22T08:32:34;12.25;;;5.18;;
39698;SDS011;25372;50.582;12.250;2023-02-22T08:42:55;10.88;;;5.10;;
39698;SDS011;25372;50.582;12.250;2023-02-22T08:53:17;11.35;;;5.55;;
39698;SDS011;25372;50.582;12.250;2023-02-22T09:03:38;11.85;;;5.30;;
39698;SDS011;25372;50.582;12.250;2023-02-22T09:14:00;12.15;;;5.90;;
39698;SDS011;25372;50.582;12.250;2023-02-22T09:24:20;12.77;;;5.82;;
39698;SDS011;25372;50.582;12.250;2023-02-22T09:34:43;14.77;;;6.18;;
39698;SDS011;25372;50.582;12.250;2023-02-22T09:45:06;14.18;;;5.05;;
39698;SDS011;25372;50.582;12.250;2023-02-22T09:55:35;10.10;;;4.93;;
39698;SDS011;25372;50.582;12.250;2023-02-22T10:06:00;8.02;;;4.40;;
39698;SDS011;25372;50.582;12.250;2023-02-22T10:16:28;10.43;;;4.50;;
39698;SDS011;25372;50.582;12.250;2023-02-22T10:26:55;9.93;;;5.35;;
39698;SDS011;25372;50.582;12.250;2023-02-22T10:37:22;10.05;;;5.50;;
39698;SDS011;25372;50.582;12.250;2023-02-22T10:47:44;14.45;;;5.53;;
39698;SDS011;25372;50.582;12.250;2023-02-22T10:58:07;10.48;;;5.35;;
39698;SDS011;25372;50.582;12.250;2023-02-22T11:08:29;9.50;;;4.97;;
39698;SDS011;25372;50.582;12.250;2023-02-22T11:18:56;9.98;;;4.90;;
39698;SDS011;25372;50.582;12.250;2023-02-22T11:29:22;4.85;;;3.25;;
39698;SDS011;25372;50.582;12.250;2023-02-22T11:39:47;9.07;;;4.95;;
39698;SDS011;25372;50.582;12.250;2023-02-22T11:50:10;7.85;;;4.10;;
39698;SDS011;25372;50.582;12.250;2023-02-22T12:00:44;4.70;;;3.38;;
39698;SDS011;25372;50.582;12.250;2023-02-22T12:11:13;7.35;;;3.70;;
39698;SDS011;25372;50.582;12.250;2023-02-22T12:21:42;7.05;;;3.53;;
39698;SDS011;25372;50.582;12.250;2023-02-22T12:32:08;9.15;;;3.20;;
39698;SDS011;25372;50.582;12.250;2023-02-22T12:42:41;3.90;;;2.65;;
39698;SDS011;25372;50.582;12.250;2023-02-22T12:53:11;4.38;;;2.97;;
39698;SDS011;25372;50.582;12.250;2023-02-22T13:03:39;3.95;;;2.63;;
39698;SDS011;25372;50.582;12.250;2023-02-22T13:14:06;6.27;;;2.87;;
39698;SDS011;25372;50.582;12.250;2023-02-22T13:24:38;3.55;;;2.25;;
39698;SDS011;25372;50.582;12.250;2023-02-22T13:35:09;5.18;;;2.45;;
39698;SDS011;25372;50.582;12.250;2023-02-22T13:45:45;4.18;;;2.85;;
39698;SDS011;25372;50.582;12.250;2023-02-22T13:56:18;5.57;;;2.97;;
39698;SDS011;25372;50.582;12.250;2023-02-22T14:06:40;4.72;;;2.83;;
39698;SDS011;25372;50.582;12.250;2023-02-22T14:27:47;5.53;;;2.80;;
39698;SDS011;25372;50.582;12.250;2023-02-22T14:38:12;3.42;;;2.50;;
39698;SDS011;25372;50.582;12.250;2023-02-22T14:48:39;4.72;;;3.08;;
39698;SDS011;25372;50.582;12.250;2023-02-22T14:59:05;4.83;;;2.87;;
39698;SDS011;25372;50.582;12.250;2023-02-22T15:09:36;6.40;;;3.10;;
39698;SDS011;25372;50.582;12.250;2023-02-22T15:19:57;4.13;;;2.22;;
39698;SDS011;25372;50.582;12.250;2023-02-22T15:30:21;4.57;;;2.80;;
39698;SDS011;25372;50.582;12.250;2023-02-22T15:40:45;3.65;;;2.53;;
39698;SDS011;25372;50.582;12.250;2023-02-22T15:51:11;10.53;;;4.03;;
39698;SDS011;25372;50.582;12.250;2023-02-22T16:01:35;13.48;;;4.50;;
39698;SDS011;25372;50.582;12.250;2023-02-22T16:12:07;10.13;;;5.10;;
39698;SDS011;25372;50.582;12.250;2023-02-22T16:22:29;14.07;;;5.03;;
39698;SDS011;25372;50.582;12.250;2023-02-22T16:32:55;10.67;;;4.57;;
39698;SDS011;25372;50.582;12.250;2023-02-22T16:43:17;13.73;;;4.88;;
39698;SDS011;25372;50.582;12.250;2023-02-22T16:53:42;13.98;;;4.97;;
39698;SDS011;25372;50.582;12.250;2023-02-22T17:04:08;10.52;;;4.90;;
39698;SDS011;25372;50.582;12.250;2023-02-22T17:14:35;9.90;;;4.95;;
39698;SDS011;25372;50.582;12.250;2023-02-22T17:24:55;12.05;;;4.68;;
39698;SDS011;25372;50.582;12.250;2023-02-22T17:35:18;12.63;;;5.72;;
39698;SDS011;25372;50.582;12.250;2023-02-22T17:45:41;16.25;;;6.40;;
39698;SDS011;25372;50.582;12.250;2023-02-22T17:56:07;15.10;;;5.90;;
39698;SDS011;25372;50.582;12.250;2023-02-22T18:06:30;12.77;;;6.28;;
39698;SDS011;25372;50.582;12.250;2023-02-22T18:16:53;15.60;;;7.10;;
39698;SDS011;25372;50.582;12.250;2023-02-22T18:27:13;17.45;;;7.68;;
39698;SDS011;25372;50.582;12.250;2023-02-22T18:37:35;18.80;;;8.68;;
39698;SDS011;25372;50.582;12.250;2023-02-22T18:47:56;19.70;;;8.50;;
39698;SDS011;25372;50.582;12.250;2023-02-22T18:58:18;19.05;;;9.65;;
39698;SDS011;25372;50.582;12.250;2023-02-22T19:08:39;16.98;;;8.63;;
39698;SDS011;25372;50.582;12.250;2023-02-22T19:19:02;15.73;;;6.85;;
39698;SDS011;25372;50.582;12.250;2023-02-22T19:29:23;19.25;;;8.48;;
39698;SDS011;25372;50.582;12.250;2023-02-22T19:39:45;24.25;;;9.82;;
39698;SDS011;25372;50.582;12.250;2023-02-22T19:50:06;29.20;;;9.25;;
39698;SDS011;25372;50.582;12.250;2023-02-22T20:00:28;24.65;;;8.75;;
39698;SDS011;25372;50.582;12.250;2023-02-22T20:10:56;29.10;;;8.77;;
39698;SDS011;25372;50.582;12.250;2023-02-22T20:21:19;20.17;;;8.45;;
39698;SDS011;25372;50.582;12.250;2023-02-22T20:31:43;19.45;;;7.38;;
39698;SDS011;25372;50.582;12.250;2023-02-22T20:42:08;22.77;;;8.37;;
39698;SDS011;25372;50.582;12.250;2023-02-22T20:52:29;20.45;;;8.02;;
39698;SDS011;25372;50.582;12.250;2023-02-22T21:02:52;21.02;;;8.23;;
39698;SDS011;25372;50.582;12.250;2023-02-22T21:13:12;25.25;;;9.10;;
39698;SDS011;25372;50.582;12.250;2023-02-22T21:23:35;26.20;;;11.35;;
39698;SDS011;25372;50.582;12.250;2023-02-22T21:33:57;20.27;;;9.73;;
39698;SDS011;25372;50.582;12.250;2023-02-22T21:44:20;25.10;;;10.85;;
39698;SDS011;25372;50.582;12.250;2023-02-22T21:54:41;27.63;;;11.02;;
39698;SDS011;25372;50.582;12.250;2023-02-22T22:05:04;21.73;;;9.02;;
39698;SDS011;25372;50.582;12.250;2023-02-22T22:15:25;23.55;;;9.32;;
39698;SDS011;25372;50.582;12.250;2023-02-22T22:25:49;21.90;;;8.70;;
39698;SDS011;25372;50.582;12.250;2023-02-22T22:36:11;27.38;;;9.30;;
39698;SDS011;25372;50.582;12.250;2023-02-22T22:46:35;22.57;;;9.17;;
39698;SDS011;25372;50.582;12.250;2023-02-22T22:56:58;20.85;;;8.73;;
39698;SDS011;25372;50.582;12.250;2023-02-22T23:07:20;19.73;;;8.77;;
39698;SDS011;25372;50.582;12.250;2023-02-22T23:17:41;21.98;;;8.18;;
39698;SDS011;25372;50.582;12.250;2023-02-22T23:28:05;21.70;;;8.32;;
39698;SDS011;25372;50.582;12.250;2023-02-22T23:38:32;17.80;;;6.88;;
39698;SDS011;25372;50.582;12.250;2023-02-22T23:48:55;21.63;;;8.35;;
39698;SDS011;25372;50.582;12.250;2023-02-22T23:59:19;19.85;;;6.82;;
